Main page
METAR-TAF:

METAR-TAF

Airports :

North Platte Regional Airport

North Platte, Nebraska, United States

latitude: 41-07-19N, longitude: 100-40-06W, elevation: 2775 ft

Current weather observation

The report was made 55 minutes ago, at 21:53 UTC
Wind 8 mph from the North/Northeast with gusts up to 24 mph
Temperature 77°F
Humidity 34%
Pressure 29.89 in. Hg
Visibility: 10 miles
Clear sky

METAR: KLBF 262153Z AUTO 03007G21KT 10SM CLR 25/08 A2989 RMK AO2 SLP109 T02500078

Time: 17:48 (22:48 UTC)

Forecast

The report was made 5 hours and 27 minutes ago, at 17:21 UTC
Forecast valid from 26 at 18 UTC to 27 at 18 UTC
Wind 12 mph from the Northwest
Visibility: 6 miles
Scattered clouds at a height of 10000 ft
From 27 at 0100 UTC
Wind 5 mph from variable directions
Visibility: 6 miles
Few clouds at a height of 20000 ft
From 27 at 1500 UTC
Wind 9 mph from the North/Northwest
Visibility: 6 miles
Few clouds at a height of 20000 ft

TAF: KLBF 261721Z 2618/2718 31010KT P6SM SCT100 FM270100 VRB04KT P6SM FEW200 FM271500 33008KT P6SM FEW200

Weather observations and forecasts of more than 4000 airports (METAR and TAF reports).

The available stations are represented by yellow and red dots on the map.

Hover mouse over dot to see the name of the station.

Then click to see weather observations and forecasts.

To change the map : click on the green buttons with a black cross to zoom in, on the green button with a dash to zoom out, or on the green arrows for adjacent maps.


METAR-TAF: